Ehsan Noorafkan

Recruteur - Sepahan
23 Oct 2027
Samedi
Processus

Personnalité

Adaptabilité (19) Ambition (8) Controverse (19) Loyauté (1) Pression (3) Professionnalisme (7) Sportivité (1) Tempérament (6)

Profil

Style d'entraînement Démocratique
Diplôme National B
Détermination 8
Gestion des joueurs 6
Motivation 12
Discipline 5
Satisfaction professionnelle
97%
Fatigue
0%
Rôle Recruteur
Salaire 18.6K p/s
Contrat 14.03.2029

Performance

Comportement Bon
Efficacité de l'entraînement
27%
Développement des joueurs
60%
Prévention des blessures
40%
Mise en place tactique
20%

Événements récents

A participé à une réunion de recrutement 7j
A recommandé une cible de transfert 7j
A participé à une réunion de recrutement 14j
A recommandé une cible de transfert 14j
A participé à une réunion de recrutement 21j
A recommandé une cible de transfert 21j
A participé à une réunion de recrutement 28j
A recommandé une cible de transfert 28j

Suivi en cours

94
Joueur Club Statut Capacité Confiance Observé Dernière observation Dernier vote
Darlvin Yeboah Bechem United Perdu 93 / 99 40% 1 12.07.2027 -
Wilmar Cordoba Valledupar Perdu 85 / 89 40% 1 12.07.2027 -
Matvii Burenko Vorskla Actif 86 / 99 40% 1 12.07.2027 -
Pejman Hajsafi Padideh Actif 104 / 102 72% 1 14.06.2027 Approuver
Amir Hosseini Rah Ahan Perdu 129 / 113 72% 1 02.06.2027 -
Saman Taremi Padideh Actif 104 / 122 40% 4 31.05.2027 -
Sam Curtis Swindon Town Actif 97 / 117 40% 2 31.05.2027 -
Christos Mouzakitis Hull City Actif 136 / 131 40% 4 31.05.2027 -
Gladson Sulemana Liberty Professionals Actif 91 / 94 40% 4 30.05.2027 -
Sascha Britschgi Catanzaro Actif 115 / 138 40% 2 25.05.2027 -
Mohammed Wakaso Hasaacas Actif 100 / 109 40% 4 25.05.2027 -
Milad Jahanbakhsh Rah Ahan Perdu 100 / 122 40% 5 23.05.2027 -
T-Jay Parfitt Cardiff City Actif 84 / 101 40% 3 23.05.2027 -
Pietro Reggiori Pro Patria Actif 91 / 97 40% 1 23.05.2027 -
Jonathan De Irastorza Levante Actif 115 / 114 40% 3 21.05.2027 -
Victor Ehibe Gazelle Garoua Actif 83 / 78 40% 2 21.05.2027 -
Caleb Yirenkyi Coventry City Actif 136 / 144 40% 10 20.05.2027 -
Maeson King Blackpool Actif 114 / 113 40% 2 20.05.2027 -
Juan David Arizala Udinese Actif 121 / 117 40% 1 20.05.2027 -
Mehdi Hosseini Siah Jamegan Actif 83 / 92 40% 1 16.05.2027 -
Davide Bartesaghi AC Milan Actif 138 / 141 40% 1 16.05.2027 -
Edwin Asamoah Berekum Chelsea Actif 94 / 93 40% 3 14.05.2027 -
Lucas Jetten Cambuur Actif 115 / 117 40% 2 14.05.2027 -
Jaydee Canvot Liverpool Actif 138 / 134 40% 1 14.05.2027 -
Gonçalo Oliveira Benfica Actif 113 / 103 40% 4 13.05.2027 -
Leandro Martins Benfica Actif 93 / 91 40% 4 13.05.2027 -
Riyad Idrissi Torino Actif 126 / 137 40% 1 10.05.2027 -
Leonardo Mendicino Bari Actif 108 / 125 40% 1 08.05.2027 -
Bakary Haïdara Hearts of Oak Actif 104 / 112 40% 6 06.05.2027 -
Jofre Torrents Ajax Actif 116 / 134 40% 1 29.04.2027 -
Edmund Inusah WAFA Actif 75 / 79 40% 2 23.04.2027 -
Riley Owen Wycombe Wanderers Actif 108 / 119 40% 2 20.04.2027 -
Tommaso Cecotti Carpi Actif 93 / 109 40% 3 10.04.2027 -
Yaghoub Barage Persepolis Actif 98 / 106 40% 3 07.04.2027 -
Riquelme Thompson-Jones Shrewsbury Town Actif 110 / 116 40% 1 07.04.2027 -
Andrey Ivlev Nizhniy Novgorod Actif 116 / 129 40% 3 31.03.2027 -
James Dornelly Peterborough United Actif 109 / 97 40% 2 31.03.2027 -
Moncef Zekri Sporting CP Actif 89 / 100 40% 1 27.03.2027 -
Edmund Nuhu BA All Stars Actif 86 / 101 40% 1 26.03.2027 -
Matvey Kislyak Lokomotiv Moscow Actif 140 / 133 40% 1 22.03.2027 -
Abraham Paintsil Hasaacas Actif 86 / 74 40% 4 21.03.2027 -
Daniel Kelly Derby County Actif 114 / 106 40% 1 11.03.2027 -
Martim Cunha Porto Actif 93 / 103 40% 1 11.03.2027 -
Dylan Lawlor Cardiff City Actif 111 / 121 40% 1 04.03.2027 -
Leandrinho Sharjah Actif 109 / 121 40% 1 24.02.2027 -
Raymond Agyemang Aduana Stars Actif 82 / 86 40% 1 23.02.2027 -
Tiago Freitas Benfica Actif 106 / 114 40% 1 12.02.2027 -
Surprise Manthosi Polokwane City Actif 92 / 105 40% 1 07.02.2027 -
Eivind Helland Bologna Actif 128 / 123 40% 1 07.02.2027 -
Norbert Barczak Korona Actif 96 / 109 40% 1 02.02.2027 -
Simphiwe Selepe Orlando Pirates Actif 111 / 111 40% 1 02.02.2027 -
Kaveh Azmoun Siah Jamegan Actif 132 / 132 40% 5 24.12.2026 -
Suleiman Camara Slovan Bratislava Actif 124 / 114 40% 2 24.12.2026 -
Tshepang Moremi Orlando Pirates Actif 125 / 105 40% 2 24.12.2026 -
Petar Stanić Ludogorets Perdu 142 / 117 40% 4 22.12.2026 -
Gholam Reza Sabetimani Malavan Actif 95 / 100 40% 1 22.12.2026 -
Rubens Dinamo Moscow Actif 129 / 143 40% 1 21.12.2026 -
Emi Rodriguez Leon Actif 116 / 125 40% 2 20.12.2026 -
Mauro Rodrigues Botev Plovdiv Actif 121 / 108 40% 1 18.12.2026 -
Ali Hajsafi Rah Ahan Perdu 114 / 100 40% 1 18.12.2026 -
Wandile Duba Maritzburg United Actif 103 / 98 40% 1 14.12.2026 -
Sardar Pouraliganji Padideh Actif 95 / 104 40% 2 12.12.2026 -
Mduduzi Shabalala Kaizer Chiefs Actif 108 / 110 40% 4 11.12.2026 -
Parham Movaghari Saba Actif 103 / 94 40% 2 09.12.2026 -
Mohammad Khodabandelou Persepolis Actif 109 / 112 40% 2 09.12.2026 -
Mohammad Hossein Eslami Esteghlal Actif 104 / 102 40% 4 08.12.2026 -
Hossein Goudarzi Esteghlal Actif 120 / 124 40% 2 06.12.2026 -
Ehsan Karimi Padideh Actif 116 / 120 40% 3 06.12.2026 -
Reda Khadra Qarabag Actif 137 / 136 40% 4 04.12.2026 -
Álvaro Carreras Real Madrid Actif 145 / 147 40% 1 04.12.2026 -
Christian Krasnodar Actif 137 / 149 40% 1 03.12.2026 -
Sobhan Khaghani Zob Ahan Actif 106 / 114 40% 2 30.11.2026 -
Roger Fernandes Al-Ittihad Actif 137 / 133 40% 1 30.11.2026 -
Mohammad Reza Ghobeishavi Naft Tehran Actif 100 / 109 40% 1 29.11.2026 -
Simon Ramabu Polokwane City Actif 108 / 125 40% 1 29.11.2026 -
Hélio Varela Maccabi Tel Aviv Actif 132 / 131 40% 1 24.11.2026 -
Camilo Durán Bloemfontein Celtic Actif 127 / 113 40% 1 24.11.2026 -
Reza Moharrami Rah Ahan Actif 110 / 111 40% 2 23.11.2026 -
Aljoša Matko Ujpest Actif 129 / 108 40% 1 23.11.2026 -
Oston O'runov Persepolis Actif 124 / 126 40% 4 15.11.2026 -
Ronaldo Maarman University of Pretoria Actif 110 / 119 40% 1 12.11.2026 -
Antonio Van Wyk Mamelodi Sundowns Actif 124 / 111 40% 1 29.10.2026 -
Danil Glebov Dinamo Moscow Actif 129 / 149 40% 1 29.10.2026 -
Mehdi Hashemnejad Tractor Actif 123 / 123 40% 1 27.10.2026 -
Ammar Ramadan DAC Dunajska Streda Actif 120 / 143 40% 2 23.10.2026 -
Musab Al-Juwayr Al-Qadisiyah Actif 127 / 143 40% 1 23.10.2026 -
Mohammad Mehdi Mohebi Persepolis Actif 116 / 121 40% 1 19.10.2026 -
Luca Marchetti Rah Ahan Actif 105 / 95 40% 1 15.10.2026 -
Mohammad Sharifi Esteghlal Khuzestan Actif 100 / 96 40% 2 13.10.2026 -
Liel Abada Charlotte Football Club Actif 132 / 125 40% 1 13.10.2026 -
Bobby Pointon Bradford City Actif 112 / 100 40% 1 09.10.2026 -
Oswin Appollis Orlando Pirates Actif 127 / 133 40% 1 04.08.2026 -
Beñat Turrientes Real Sociedad Actif 145 / 153 40% 1 01.08.2026 -
Alejandro Zendejas Club America Actif 130 / 122 40% 1 01.08.2026 -